Lake Isabella, CA (93240)

11:45 AM PDT on April 26, 2017 (GMT -0700)
| | Change Station
Active Advisory: Wind Advisory

Elev -9999 ft 0.00 °N, 0.00 °E | Updated 10 minutes ago

Clear
Clear
°F
Feels Like °F
N
Wind Variable Wind from North
Gusts mph

Today
High -- | Low -- °F
--% Chance of Precip.
Yesterday
High -- | Low -- °F
Precip. -- in
Pressure 30.04 in
Visibility 10.0 miles
Clouds Clear
Dew Point Not available.
Humidity Not available.
Rainfall --
Snow Depth Not available.
6:07 AM 7:36 PM
New Moon, 0% visible
METAR KTSP 261835Z AUTO 30022G27KT 10SM CLR 14/05 A3004 RMK AO2
Pressure 30.04 in
Visibility 10.0 miles
Clouds Clear
Dew Point Not available.
Humidity Not available.
Rainfall --
Snow Depth Not available.
6:07 AM 7:36 PM
New Moon, 0% visible
METAR KTSP 261835Z AUTO 30022G27KT 10SM CLR 14/05 A3004 RMK AO2

Get Your Daily Forecast Email!

Thanks for signing up!

Be on the lookout for a verification email in your inbox.

You'll start receiving severe weather alerts in your inbox..

×

10-Day Weather Forecast

Almanac

Astronomy

Apr. 26, 2017 Rise Set
Actual Time
Civil Twilight
Nautical Twilight
Astronomical Twilight
Moon
Length of Visible Light
Length of Day
Tomorrow will be .
, % of the Moon is Illuminated

Today's Extremes

State Highs State Lows

Community

WunderPhotos

WunderBlog® & News

Nearby

Air Quality

  Air Quality AQ Index Pollutant
Not available.

Snow Depth

Station Depth Elevation

Earthquake Activity

City Distance Mag. Time & Date
Minimum magnitude displayed is 2.5.

Coastal Water Temperatures

Place Temperature

Stations

Nearby Weather Stations

Station Location Temp. Windchill Dew Point Humidity Wind Precip. Elev Updated Type
                   

Watches & Warnings

Wind Advisory
Issued: 10:52 AM PDT Apr. 26, 2017 – National Weather Service

... Wind Advisory remains in effect until 5 am PDT Thursday...

* winds... northwest 25 to 35 mph with gusts up to 55 mph.

* Timing... winds will increase during the early afternoon and
become strong and gusty during the late afternoon and evening.
Winds expected to weaken overnight.

* Impacts... strong winds may blow down limbs, trees, and power
lines. Scattered power outages are expected.

Precautionary/preparedness actions...

A Wind Advisory means that wind gusts of 45 mph or greater are
expected. Winds this strong can make driving difficult, especially
for high profile vehicles. Use extra caution.



Ds